San Remo, Italy

10:54 PM CEST on April 27, 2017 (GMT +0200)
Salita Pescio | | Change Station

Elev 144 ft 43.82 °N, 7.77 °E | Updated 4 minutes ago

Partly Cloudy
Partly Cloudy
56.1 °F
Feels Like 56.1 °F
N
0.6
Wind Variable Wind from East
Gusts 2.5 mph

Today
High -- | Low -- °F
--% Chance of Precip.
Yesterday
High -- | Low -- °F
Precip. -- in
Pressure 29.71 in
Visibility 6.2 miles
Clouds Few 10000 ft
Dew Point 48 °F
Humidity 75%
Rainfall 0.08 in
Snow Depth Not available.
6:26 AM 8:27 PM
Waxing Crescent, 3% visible
METAR LFMN 272030Z 29004KT 250V340 9999 FEW100 12/06 Q1006 NOSIG
Pressure 29.71 in
Visibility 6.2 miles
Clouds Few 10000 ft
Dew Point 48 °F
Humidity 75%
Rainfall 0.08 in
Snow Depth Not available.
6:26 AM 8:27 PM
Waxing Crescent, 3% visible
METAR LFMN 272030Z 29004KT 250V340 9999 FEW100 12/06 Q1006 NOSIG

Get Severe Weather Alerts

Thanks for signing up!

Be on the lookout for a verification email in your inbox.

You'll start receiving the daily forecast at 8 AM.

×

10-Day Weather Forecast

×

Almanac

Astronomy

Apr. 27, 2017 Rise Set
Actual Time
Civil Twilight
Nautical Twilight
Astronomical Twilight
Moon
Length of Visible Light
Length of Day
Tomorrow will be .
, % of the Moon is Illuminated

Today's Extremes

Country Highs Country Lows

Community

WunderPhotos

WunderBlog® & News

Nearby

Air Quality

  Air Quality AQ Index Pollutant
Not available.

Snow Depth

Station Depth Elevation

Earthquake Activity

City Distance Mag. Time & Date
Minimum magnitude displayed is 2.5.

Coastal Water Temperatures

Place Temperature

Stations

Nearby Weather Stations

Station Location Temp. Windchill Dew Point Humidity Wind Precip. Elev Updated Type